sensor_id;sensor_type;location;lat;lon;timestamp;P1;durP1;ratioP1;P2;durP2;ratioP2
47617;SDS011;33336;36.728;-4.414;2023-02-01T00:00:19;3.05;;;1.85;;
47617;SDS011;33336;36.728;-4.414;2023-02-01T00:05:23;4.32;;;1.95;;
47617;SDS011;33336;36.728;-4.414;2023-02-01T00:10:26;7.63;;;2.35;;
47617;SDS011;33336;36.728;-4.414;2023-02-01T00:15:29;2.88;;;1.55;;
47617;SDS011;33336;36.728;-4.414;2023-02-01T00:20:35;1.80;;;1.30;;
47617;SDS011;33336;36.728;-4.414;2023-02-01T00:25:38;2.95;;;1.55;;
47617;SDS011;33336;36.728;-4.414;2023-02-01T00:30:41;3.10;;;1.98;;
47617;SDS011;33336;36.728;-4.414;2023-02-01T00:35:46;5.47;;;2.80;;
47617;SDS011;33336;36.728;-4.414;2023-02-01T00:40:49;3.95;;;1.55;;
47617;SDS011;33336;36.728;-4.414;2023-02-01T00:45:52;3.38;;;2.00;;
47617;SDS011;33336;36.728;-4.414;2023-02-01T00:50:59;5.32;;;1.88;;
47617;SDS011;33336;36.728;-4.414;2023-02-01T00:56:03;2.28;;;1.27;;
47617;SDS011;33336;36.728;-4.414;2023-02-01T01:01:09;3.60;;;2.25;;
47617;SDS011;33336;36.728;-4.414;2023-02-01T01:06:15;1.90;;;1.10;;
47617;SDS011;33336;36.728;-4.414;2023-02-01T01:11:21;4.18;;;1.95;;
47617;SDS011;33336;36.728;-4.414;2023-02-01T01:16:26;5.15;;;1.58;;
47617;SDS011;33336;36.728;-4.414;2023-02-01T01:21:33;4.70;;;2.22;;
47617;SDS011;33336;36.728;-4.414;2023-02-01T01:26:36;3.15;;;1.75;;
47617;SDS011;33336;36.728;-4.414;2023-02-01T01:31:39;2.92;;;1.77;;
47617;SDS011;33336;36.728;-4.414;2023-02-01T01:36:44;3.60;;;1.80;;
47617;SDS011;33336;36.728;-4.414;2023-02-01T01:41:46;3.05;;;1.80;;
47617;SDS011;33336;36.728;-4.414;2023-02-01T01:46:49;3.75;;;1.60;;
47617;SDS011;33336;36.728;-4.414;2023-02-01T01:51:54;3.47;;;1.70;;
47617;SDS011;33336;36.728;-4.414;2023-02-01T01:57:02;3.47;;;2.08;;
47617;SDS011;33336;36.728;-4.414;2023-02-01T02:02:10;3.72;;;1.58;;
47617;SDS011;33336;36.728;-4.414;2023-02-01T02:07:16;1.38;;;1.08;;
47617;SDS011;33336;36.728;-4.414;2023-02-01T02:12:23;1.83;;;1.23;;
47617;SDS011;33336;36.728;-4.414;2023-02-01T02:17:30;5.28;;;1.77;;
47617;SDS011;33336;36.728;-4.414;2023-02-01T02:22:54;2.40;;;1.38;;
47617;SDS011;33336;36.728;-4.414;2023-02-01T02:28:34;1.98;;;1.00;;
47617;SDS011;33336;36.728;-4.414;2023-02-01T02:34:07;2.88;;;1.08;;
47617;SDS011;33336;36.728;-4.414;2023-02-01T02:39:18;2.22;;;1.23;;
47617;SDS011;33336;36.728;-4.414;2023-02-01T02:44:31;2.00;;;1.30;;
47617;SDS011;33336;36.728;-4.414;2023-02-01T02:49:58;3.17;;;1.45;;
47617;SDS011;33336;36.728;-4.414;2023-02-01T02:55:29;3.22;;;1.85;;
47617;SDS011;33336;36.728;-4.414;2023-02-01T03:00:34;3.15;;;0.93;;
47617;SDS011;33336;36.728;-4.414;2023-02-01T03:05:57;3.28;;;1.15;;
47617;SDS011;33336;36.728;-4.414;2023-02-01T03:11:01;2.88;;;1.40;;
47617;SDS011;33336;36.728;-4.414;2023-02-01T03:16:07;3.55;;;1.40;;
47617;SDS011;33336;36.728;-4.414;2023-02-01T03:21:16;4.32;;;1.25;;
47617;SDS011;33336;36.728;-4.414;2023-02-01T03:26:23;3.38;;;1.10;;
47617;SDS011;33336;36.728;-4.414;2023-02-01T03:31:29;2.03;;;1.13;;
47617;SDS011;33336;36.728;-4.414;2023-02-01T03:36:35;1.92;;;1.27;;
47617;SDS011;33336;36.728;-4.414;2023-02-01T03:41:42;1.95;;;1.25;;
47617;SDS011;33336;36.728;-4.414;2023-02-01T03:46:50;3.10;;;1.05;;
47617;SDS011;33336;36.728;-4.414;2023-02-01T03:52:05;3.97;;;1.60;;
47617;SDS011;33336;36.728;-4.414;2023-02-01T03:57:12;1.90;;;1.13;;
47617;SDS011;33336;36.728;-4.414;2023-02-01T04:02:20;2.33;;;1.15;;
47617;SDS011;33336;36.728;-4.414;2023-02-01T04:07:25;1.50;;;1.00;;
47617;SDS011;33336;36.728;-4.414;2023-02-01T04:12:28;3.30;;;1.27;;
47617;SDS011;33336;36.728;-4.414;2023-02-01T04:17:31;1.08;;;0.95;;
47617;SDS011;33336;36.728;-4.414;2023-02-01T04:22:36;2.75;;;0.93;;
47617;SDS011;33336;36.728;-4.414;2023-02-01T04:27:39;1.73;;;0.88;;
47617;SDS011;33336;36.728;-4.414;2023-02-01T04:32:42;1.80;;;1.35;;
47617;SDS011;33336;36.728;-4.414;2023-02-01T04:37:47;2.28;;;1.08;;
47617;SDS011;33336;36.728;-4.414;2023-02-01T04:42:50;2.08;;;0.90;;
47617;SDS011;33336;36.728;-4.414;2023-02-01T04:47:53;2.55;;;0.80;;
47617;SDS011;33336;36.728;-4.414;2023-02-01T04:52:58;1.17;;;0.88;;
47617;SDS011;33336;36.728;-4.414;2023-02-01T04:58:00;1.92;;;0.90;;
47617;SDS011;33336;36.728;-4.414;2023-02-01T05:03:03;3.08;;;1.10;;
47617;SDS011;33336;36.728;-4.414;2023-02-01T05:08:08;2.63;;;1.00;;
47617;SDS011;33336;36.728;-4.414;2023-02-01T05:13:11;2.33;;;0.88;;
47617;SDS011;33336;36.728;-4.414;2023-02-01T05:18:31;2.15;;;1.05;;
47617;SDS011;33336;36.728;-4.414;2023-02-01T05:23:35;2.13;;;0.90;;
47617;SDS011;33336;36.728;-4.414;2023-02-01T05:28:59;1.70;;;0.73;;
47617;SDS011;33336;36.728;-4.414;2023-02-01T05:34:02;1.75;;;1.10;;
47617;SDS011;33336;36.728;-4.414;2023-02-01T05:39:07;2.65;;;1.08;;
47617;SDS011;33336;36.728;-4.414;2023-02-01T05:44:10;1.75;;;0.80;;
47617;SDS011;33336;36.728;-4.414;2023-02-01T05:49:14;1.52;;;0.73;;
47617;SDS011;33336;36.728;-4.414;2023-02-01T05:54:18;2.42;;;0.90;;
47617;SDS011;33336;36.728;-4.414;2023-02-01T05:59:22;2.30;;;1.20;;
47617;SDS011;33336;36.728;-4.414;2023-02-01T06:04:25;2.78;;;0.93;;
47617;SDS011;33336;36.728;-4.414;2023-02-01T06:15:25;2.33;;;0.70;;
47617;SDS011;33336;36.728;-4.414;2023-02-01T06:20:28;1.45;;;1.20;;
47617;SDS011;33336;36.728;-4.414;2023-02-01T06:25:31;11.93;;;4.78;;
47617;SDS011;33336;36.728;-4.414;2023-02-01T06:30:36;26.48;;;11.75;;
47617;SDS011;33336;36.728;-4.414;2023-02-01T06:35:41;12.73;;;4.85;;
47617;SDS011;33336;36.728;-4.414;2023-02-01T06:40:45;4.63;;;2.83;;
47617;SDS011;33336;36.728;-4.414;2023-02-01T06:46:00;7.60;;;2.72;;
47617;SDS011;33336;36.728;-4.414;2023-02-01T06:56:39;23.92;;;9.98;;
47617;SDS011;33336;36.728;-4.414;2023-02-01T07:01:48;19.27;;;7.57;;
47617;SDS011;33336;36.728;-4.414;2023-02-01T07:06:50;5.82;;;2.65;;
47617;SDS011;33336;36.728;-4.414;2023-02-01T07:11:53;4.68;;;2.05;;
47617;SDS011;33336;36.728;-4.414;2023-02-01T07:16:58;2.95;;;1.58;;
47617;SDS011;33336;36.728;-4.414;2023-02-01T07:22:01;4.13;;;1.27;;
47617;SDS011;33336;36.728;-4.414;2023-02-01T07:27:04;4.05;;;1.52;;
47617;SDS011;33336;36.728;-4.414;2023-02-01T07:32:09;5.78;;;1.80;;
47617;SDS011;33336;36.728;-4.414;2023-02-01T07:37:11;4.75;;;1.88;;
47617;SDS011;33336;36.728;-4.414;2023-02-01T07:42:15;4.43;;;1.98;;
47617;SDS011;33336;36.728;-4.414;2023-02-01T07:47:19;3.80;;;1.70;;
47617;SDS011;33336;36.728;-4.414;2023-02-01T07:52:23;7.78;;;3.33;;
47617;SDS011;33336;36.728;-4.414;2023-02-01T07:57:29;8.57;;;1.90;;
47617;SDS011;33336;36.728;-4.414;2023-02-01T08:02:34;12.80;;;3.08;;
47617;SDS011;33336;36.728;-4.414;2023-02-01T08:07:36;3.58;;;1.52;;
47617;SDS011;33336;36.728;-4.414;2023-02-01T08:12:39;3.33;;;2.05;;
47617;SDS011;33336;36.728;-4.414;2023-02-01T08:17:47;6.55;;;1.73;;
47617;SDS011;33336;36.728;-4.414;2023-02-01T08:22:52;5.30;;;1.60;;
47617;SDS011;33336;36.728;-4.414;2023-02-01T08:27:56;7.68;;;1.70;;
47617;SDS011;33336;36.728;-4.414;2023-02-01T08:33:01;6.25;;;2.38;;
47617;SDS011;33336;36.728;-4.414;2023-02-01T08:38:03;8.63;;;2.45;;
47617;SDS011;33336;36.728;-4.414;2023-02-01T08:43:07;9.05;;;2.75;;
47617;SDS011;33336;36.728;-4.414;2023-02-01T08:48:11;10.20;;;2.28;;
47617;SDS011;33336;36.728;-4.414;2023-02-01T08:53:15;4.28;;;2.20;;
47617;SDS011;33336;36.728;-4.414;2023-02-01T08:58:18;6.43;;;1.70;;
47617;SDS011;33336;36.728;-4.414;2023-02-01T09:03:24;7.18;;;2.50;;
47617;SDS011;33336;36.728;-4.414;2023-02-01T09:08:26;4.15;;;1.95;;
47617;SDS011;33336;36.728;-4.414;2023-02-01T09:13:30;6.93;;;1.80;;
47617;SDS011;33336;36.728;-4.414;2023-02-01T09:18:36;5.60;;;1.95;;
47617;SDS011;33336;36.728;-4.414;2023-02-01T09:23:39;4.10;;;1.70;;
47617;SDS011;33336;36.728;-4.414;2023-02-01T09:28:42;7.28;;;3.97;;
47617;SDS011;33336;36.728;-4.414;2023-02-01T09:33:46;11.65;;;4.13;;
47617;SDS011;33336;36.728;-4.414;2023-02-01T09:38:49;5.07;;;1.67;;
47617;SDS011;33336;36.728;-4.414;2023-02-01T09:43:54;4.72;;;2.05;;
47617;SDS011;33336;36.728;-4.414;2023-02-01T09:49:11;4.75;;;1.50;;
47617;SDS011;33336;36.728;-4.414;2023-02-01T09:54:18;4.95;;;2.00;;
47617;SDS011;33336;36.728;-4.414;2023-02-01T09:59:29;7.00;;;2.40;;
47617;SDS011;33336;36.728;-4.414;2023-02-01T10:04:41;9.93;;;3.67;;
47617;SDS011;33336;36.728;-4.414;2023-02-01T10:09:47;11.45;;;3.60;;
47617;SDS011;33336;36.728;-4.414;2023-02-01T10:15:02;9.57;;;3.85;;
47617;SDS011;33336;36.728;-4.414;2023-02-01T10:20:18;8.45;;;4.40;;
47617;SDS011;33336;36.728;-4.414;2023-02-01T10:25:28;11.98;;;4.93;;
47617;SDS011;33336;36.728;-4.414;2023-02-01T10:36:13;8.00;;;4.03;;
47617;SDS011;33336;36.728;-4.414;2023-02-01T10:41:20;8.48;;;4.38;;
47617;SDS011;33336;36.728;-4.414;2023-02-01T10:46:24;7.95;;;4.03;;
47617;SDS011;33336;36.728;-4.414;2023-02-01T10:51:29;9.73;;;3.53;;
47617;SDS011;33336;36.728;-4.414;2023-02-01T10:56:39;5.35;;;2.10;;
47617;SDS011;33336;36.728;-4.414;2023-02-01T11:01:43;4.70;;;2.20;;
47617;SDS011;33336;36.728;-4.414;2023-02-01T11:06:49;2.70;;;2.10;;
47617;SDS011;33336;36.728;-4.414;2023-02-01T11:11:56;6.78;;;3.00;;
47617;SDS011;33336;36.728;-4.414;2023-02-01T11:17:01;3.92;;;2.45;;
47617;SDS011;33336;36.728;-4.414;2023-02-01T11:22:14;3.33;;;2.15;;
47617;SDS011;33336;36.728;-4.414;2023-02-01T11:27:17;9.55;;;2.40;;
47617;SDS011;33336;36.728;-4.414;2023-02-01T11:32:24;7.10;;;3.35;;
47617;SDS011;33336;36.728;-4.414;2023-02-01T11:37:31;4.13;;;2.53;;
47617;SDS011;33336;36.728;-4.414;2023-02-01T11:42:37;5.13;;;1.95;;
47617;SDS011;33336;36.728;-4.414;2023-02-01T11:47:56;6.25;;;2.58;;
47617;SDS011;33336;36.728;-4.414;2023-02-01T11:53:06;5.22;;;2.22;;
47617;SDS011;33336;36.728;-4.414;2023-02-01T11:58:33;2.88;;;2.08;;
47617;SDS011;33336;36.728;-4.414;2023-02-01T12:04:23;2.45;;;1.92;;
47617;SDS011;33336;36.728;-4.414;2023-02-01T12:09:58;2.95;;;1.80;;
47617;SDS011;33336;36.728;-4.414;2023-02-01T12:26:08;2.78;;;1.70;;
47617;SDS011;33336;36.728;-4.414;2023-02-01T12:31:34;3.67;;;1.88;;
47617;SDS011;33336;36.728;-4.414;2023-02-01T12:36:52;5.20;;;2.00;;
47617;SDS011;33336;36.728;-4.414;2023-02-01T12:42:02;4.32;;;1.40;;
47617;SDS011;33336;36.728;-4.414;2023-02-01T12:47:14;3.00;;;1.00;;
47617;SDS011;33336;36.728;-4.414;2023-02-01T12:52:26;5.93;;;1.38;;
47617;SDS011;33336;36.728;-4.414;2023-02-01T12:57:38;3.47;;;1.27;;
47617;SDS011;33336;36.728;-4.414;2023-02-01T13:02:47;5.70;;;1.40;;
47617;SDS011;33336;36.728;-4.414;2023-02-01T13:07:57;1.17;;;0.95;;
47617;SDS011;33336;36.728;-4.414;2023-02-01T13:13:07;4.50;;;1.10;;
47617;SDS011;33336;36.728;-4.414;2023-02-01T13:18:20;3.35;;;1.27;;
47617;SDS011;33336;36.728;-4.414;2023-02-01T13:23:25;3.42;;;1.30;;
47617;SDS011;33336;36.728;-4.414;2023-02-01T13:28:34;4.35;;;1.10;;
47617;SDS011;33336;36.728;-4.414;2023-02-01T13:33:55;3.45;;;1.10;;
47617;SDS011;33336;36.728;-4.414;2023-02-01T13:44:31;2.45;;;1.63;;
47617;SDS011;33336;36.728;-4.414;2023-02-01T13:49:37;2.57;;;1.10;;
47617;SDS011;33336;36.728;-4.414;2023-02-01T13:54:41;1.17;;;0.90;;
47617;SDS011;33336;36.728;-4.414;2023-02-01T13:59:50;2.15;;;0.95;;
47617;SDS011;33336;36.728;-4.414;2023-02-01T14:04:55;1.38;;;0.90;;
47617;SDS011;33336;36.728;-4.414;2023-02-01T14:10:03;2.40;;;0.95;;
47617;SDS011;33336;36.728;-4.414;2023-02-01T14:15:54;2.33;;;1.23;;
47617;SDS011;33336;36.728;-4.414;2023-02-01T14:21:17;1.30;;;0.90;;
47617;SDS011;33336;36.728;-4.414;2023-02-01T14:26:21;3.00;;;0.90;;
47617;SDS011;33336;36.728;-4.414;2023-02-01T14:37:08;2.83;;;1.23;;
47617;SDS011;33336;36.728;-4.414;2023-02-01T14:42:15;0.60;;;0.50;;
47617;SDS011;33336;36.728;-4.414;2023-02-01T14:47:28;3.30;;;0.70;;
47617;SDS011;33336;36.728;-4.414;2023-02-01T14:52:36;4.32;;;1.17;;
47617;SDS011;33336;36.728;-4.414;2023-02-01T14:57:43;2.10;;;0.95;;
47617;SDS011;33336;36.728;-4.414;2023-02-01T15:02:48;3.10;;;1.37;;
47617;SDS011;33336;36.728;-4.414;2023-02-01T15:07:54;1.55;;;1.00;;
47617;SDS011;33336;36.728;-4.414;2023-02-01T15:12:57;0.97;;;0.67;;
47617;SDS011;33336;36.728;-4.414;2023-02-01T15:18:00;1.58;;;1.10;;
47617;SDS011;33336;36.728;-4.414;2023-02-01T15:23:23;1.23;;;0.82;;
47617;SDS011;33336;36.728;-4.414;2023-02-01T15:28:26;2.38;;;0.93;;
47617;SDS011;33336;36.728;-4.414;2023-02-01T15:33:29;3.42;;;0.82;;
47617;SDS011;33336;36.728;-4.414;2023-02-01T15:38:38;2.97;;;0.60;;
47617;SDS011;33336;36.728;-4.414;2023-02-01T15:43:46;0.98;;;0.80;;
47617;SDS011;33336;36.728;-4.414;2023-02-01T15:49:05;1.77;;;1.48;;
47617;SDS011;33336;36.728;-4.414;2023-02-01T15:54:27;1.33;;;0.90;;
47617;SDS011;33336;36.728;-4.414;2023-02-01T15:59:35;2.63;;;0.90;;
47617;SDS011;33336;36.728;-4.414;2023-02-01T16:04:46;1.60;;;1.10;;
47617;SDS011;33336;36.728;-4.414;2023-02-01T16:09:54;3.50;;;1.20;;
47617;SDS011;33336;36.728;-4.414;2023-02-01T16:15:02;2.38;;;1.00;;
47617;SDS011;33336;36.728;-4.414;2023-02-01T16:20:06;1.17;;;0.57;;
47617;SDS011;33336;36.728;-4.414;2023-02-01T16:25:12;1.25;;;0.73;;
47617;SDS011;33336;36.728;-4.414;2023-02-01T16:30:16;3.00;;;1.20;;
47617;SDS011;33336;36.728;-4.414;2023-02-01T16:35:24;2.20;;;1.00;;
47617;SDS011;33336;36.728;-4.414;2023-02-01T16:40:30;3.83;;;1.25;;
47617;SDS011;33336;36.728;-4.414;2023-02-01T16:45:34;1.80;;;1.30;;
47617;SDS011;33336;36.728;-4.414;2023-02-01T16:50:48;1.55;;;0.93;;
47617;SDS011;33336;36.728;-4.414;2023-02-01T16:55:55;2.28;;;1.25;;
47617;SDS011;33336;36.728;-4.414;2023-02-01T17:00:59;1.15;;;0.60;;
47617;SDS011;33336;36.728;-4.414;2023-02-01T17:06:02;1.65;;;0.88;;
47617;SDS011;33336;36.728;-4.414;2023-02-01T17:11:07;2.65;;;1.08;;
47617;SDS011;33336;36.728;-4.414;2023-02-01T17:16:18;4.60;;;0.95;;
47617;SDS011;33336;36.728;-4.414;2023-02-01T17:21:25;2.25;;;1.40;;
47617;SDS011;33336;36.728;-4.414;2023-02-01T17:26:31;2.00;;;1.55;;
47617;SDS011;33336;36.728;-4.414;2023-02-01T17:31:36;1.60;;;0.85;;
47617;SDS011;33336;36.728;-4.414;2023-02-01T17:36:41;2.25;;;1.10;;
47617;SDS011;33336;36.728;-4.414;2023-02-01T17:41:46;3.75;;;1.75;;
47617;SDS011;33336;36.728;-4.414;2023-02-01T17:46:49;2.33;;;1.10;;
47617;SDS011;33336;36.728;-4.414;2023-02-01T17:51:52;4.03;;;1.50;;
47617;SDS011;33336;36.728;-4.414;2023-02-01T17:56:56;2.45;;;1.88;;
47617;SDS011;33336;36.728;-4.414;2023-02-01T18:02:00;5.28;;;1.63;;
47617;SDS011;33336;36.728;-4.414;2023-02-01T18:07:03;4.40;;;1.90;;
47617;SDS011;33336;36.728;-4.414;2023-02-01T18:12:12;4.82;;;1.73;;
47617;SDS011;33336;36.728;-4.414;2023-02-01T18:17:19;2.65;;;1.60;;
47617;SDS011;33336;36.728;-4.414;2023-02-01T18:22:23;4.63;;;1.60;;
47617;SDS011;33336;36.728;-4.414;2023-02-01T18:27:28;5.00;;;3.38;;
47617;SDS011;33336;36.728;-4.414;2023-02-01T18:32:31;5.70;;;3.70;;
47617;SDS011;33336;36.728;-4.414;2023-02-01T18:37:34;7.70;;;3.05;;
47617;SDS011;33336;36.728;-4.414;2023-02-01T18:42:38;4.97;;;3.15;;
47617;SDS011;33336;36.728;-4.414;2023-02-01T18:47:41;5.07;;;3.20;;
47617;SDS011;33336;36.728;-4.414;2023-02-01T18:52:45;7.03;;;3.75;;
47617;SDS011;33336;36.728;-4.414;2023-02-01T18:57:50;7.10;;;3.60;;
47617;SDS011;33336;36.728;-4.414;2023-02-01T19:02:53;6.78;;;3.65;;
47617;SDS011;33336;36.728;-4.414;2023-02-01T19:07:56;7.38;;;3.80;;
47617;SDS011;33336;36.728;-4.414;2023-02-01T19:13:00;4.18;;;2.80;;
47617;SDS011;33336;36.728;-4.414;2023-02-01T19:18:03;5.78;;;4.15;;
47617;SDS011;33336;36.728;-4.414;2023-02-01T19:23:11;11.65;;;4.65;;
47617;SDS011;33336;36.728;-4.414;2023-02-01T19:28:20;11.48;;;4.22;;
47617;SDS011;33336;36.728;-4.414;2023-02-01T19:33:23;6.38;;;4.35;;
47617;SDS011;33336;36.728;-4.414;2023-02-01T19:38:26;8.65;;;5.55;;
47617;SDS011;33336;36.728;-4.414;2023-02-01T19:43:31;9.48;;;5.10;;
47617;SDS011;33336;36.728;-4.414;2023-02-01T19:48:35;8.18;;;4.95;;
47617;SDS011;33336;36.728;-4.414;2023-02-01T19:53:39;9.25;;;5.35;;
47617;SDS011;33336;36.728;-4.414;2023-02-01T19:58:43;8.65;;;5.30;;
47617;SDS011;33336;36.728;-4.414;2023-02-01T20:03:47;12.52;;;6.65;;
47617;SDS011;33336;36.728;-4.414;2023-02-01T20:08:50;7.15;;;3.90;;
47617;SDS011;33336;36.728;-4.414;2023-02-01T20:13:55;8.15;;;4.30;;
47617;SDS011;33336;36.728;-4.414;2023-02-01T20:18:58;5.45;;;3.90;;
47617;SDS011;33336;36.728;-4.414;2023-02-01T20:24:02;4.20;;;2.85;;
47617;SDS011;33336;36.728;-4.414;2023-02-01T20:29:07;8.82;;;3.97;;
47617;SDS011;33336;36.728;-4.414;2023-02-01T20:34:10;6.47;;;4.10;;
47617;SDS011;33336;36.728;-4.414;2023-02-01T20:39:13;5.60;;;3.63;;
47617;SDS011;33336;36.728;-4.414;2023-02-01T20:44:18;7.85;;;3.70;;
47617;SDS011;33336;36.728;-4.414;2023-02-01T20:49:21;5.18;;;3.60;;
47617;SDS011;33336;36.728;-4.414;2023-02-01T20:54:25;4.53;;;3.45;;
47617;SDS011;33336;36.728;-4.414;2023-02-01T20:59:29;6.35;;;3.05;;
47617;SDS011;33336;36.728;-4.414;2023-02-01T21:04:32;5.82;;;3.63;;
47617;SDS011;33336;36.728;-4.414;2023-02-01T21:09:35;6.65;;;3.17;;
47617;SDS011;33336;36.728;-4.414;2023-02-01T21:14:42;7.70;;;3.42;;
47617;SDS011;33336;36.728;-4.414;2023-02-01T21:19:45;7.75;;;3.58;;
47617;SDS011;33336;36.728;-4.414;2023-02-01T21:24:49;7.45;;;3.20;;
47617;SDS011;33336;36.728;-4.414;2023-02-01T21:29:53;9.27;;;4.00;;
47617;SDS011;33336;36.728;-4.414;2023-02-01T21:34:57;7.88;;;4.05;;
47617;SDS011;33336;36.728;-4.414;2023-02-01T21:40:00;12.23;;;6.47;;
47617;SDS011;33336;36.728;-4.414;2023-02-01T21:45:05;7.35;;;4.28;;
47617;SDS011;33336;36.728;-4.414;2023-02-01T21:50:12;6.40;;;4.50;;
47617;SDS011;33336;36.728;-4.414;2023-02-01T21:55:19;9.25;;;4.75;;
47617;SDS011;33336;36.728;-4.414;2023-02-01T22:00:23;5.07;;;4.13;;
47617;SDS011;33336;36.728;-4.414;2023-02-01T22:05:26;8.55;;;4.20;;
47617;SDS011;33336;36.728;-4.414;2023-02-01T22:10:29;6.95;;;4.07;;
47617;SDS011;33336;36.728;-4.414;2023-02-01T22:15:34;9.82;;;5.47;;
47617;SDS011;33336;36.728;-4.414;2023-02-01T22:20:37;6.07;;;4.53;;
47617;SDS011;33336;36.728;-4.414;2023-02-01T22:25:41;6.32;;;3.70;;
47617;SDS011;33336;36.728;-4.414;2023-02-01T22:30:45;7.07;;;3.28;;
47617;SDS011;33336;36.728;-4.414;2023-02-01T22:35:49;4.60;;;2.95;;
47617;SDS011;33336;36.728;-4.414;2023-02-01T22:40:55;5.25;;;2.88;;
47617;SDS011;33336;36.728;-4.414;2023-02-01T22:46:01;4.00;;;2.50;;
47617;SDS011;33336;36.728;-4.414;2023-02-01T22:51:05;2.53;;;2.30;;
47617;SDS011;33336;36.728;-4.414;2023-02-01T22:56:10;3.45;;;2.17;;
47617;SDS011;33336;36.728;-4.414;2023-02-01T23:01:17;8.27;;;2.85;;
47617;SDS011;33336;36.728;-4.414;2023-02-01T23:06:20;3.90;;;2.13;;
47617;SDS011;33336;36.728;-4.414;2023-02-01T23:11:23;5.47;;;2.88;;
47617;SDS011;33336;36.728;-4.414;2023-02-01T23:16:28;5.25;;;2.75;;
47617;SDS011;33336;36.728;-4.414;2023-02-01T23:21:32;5.82;;;3.45;;
47617;SDS011;33336;36.728;-4.414;2023-02-01T23:26:36;4.38;;;2.80;;
47617;SDS011;33336;36.728;-4.414;2023-02-01T23:31:41;5.15;;;2.50;;
47617;SDS011;33336;36.728;-4.414;2023-02-01T23:36:44;3.72;;;2.83;;
47617;SDS011;33336;36.728;-4.414;2023-02-01T23:41:47;5.60;;;2.83;;
47617;SDS011;33336;36.728;-4.414;2023-02-01T23:46:51;6.47;;;2.78;;
47617;SDS011;33336;36.728;-4.414;2023-02-01T23:51:54;4.72;;;2.47;;
47617;SDS011;33336;36.728;-4.414;2023-02-01T23:56:58;3.78;;;2.42;;
